Nearby METAR Reports

 

KTEB - Teterboro, New Jersey, USA
Distance from station: ENE 2mi, 4km
Updated: 05/28/2017 1:51am
Mostly cloudy
Mostly cloudy
 Wind from calm
Wind: Calm
Temperature: 61°F , 16°C
Dew Point: 55°F , 13°C
Humidity: 83%
Barometer: 29.90 inHg , 1012.5 hPa
Clouds: Mostly cloudy
Visibility: 10 miles , 16 km
Cloud details: Mostly cloudy 7500 ft
2017/05/28 05:51 KTEB 280551Z 00000KT 10SM BKN075 16/13 A2990 RMK AO2 SLP125 T01560133 10211 20156 58004
KNYC - Nyc/Central Park, New York, USA
Distance from station: SE 8mi, 13km
Updated: 05/28/2017 1:51am
Overcast
Overcast
 Wind from calm
Wind: Calm
Temperature: 61°F , 16°C
Dew Point: 57°F , 14°C
Humidity: 88%
Barometer: 29.93 inHg , 1013.5 hPa
Clouds: Overcast
Visibility: 10 miles , 16 km
Cloud details: Overcast 7500 ft
2017/05/28 05:51 KNYC 280551Z AUTO 00000KT 10SM OVC075 16/14 A2993 RMK AO2 SLP127 T01560139 10206 20156 58006 $
 
KCDW - Caldwell, New Jersey, USA
Distance from station: WNW 10mi, 17km
Updated: 05/28/2017 1:53am
Mostly cloudy
Mostly cloudy
 Wind from ENE
Wind: ENE 3 mph , 6 km/h
Temperature: 61°F , 16°C
Dew Point: 55°F , 13°C
Humidity: 83%
Barometer: 29.92 inHg , 1013.2 hPa
Clouds: Mostly cloudy
Visibility: 10 miles , 16 km
Cloud details: Mostly cloudy 7000 ft
2017/05/28 05:53 KCDW 280553Z AUTO 07003KT 10SM BKN070 16/13 A2992 RMK AO2 SLP136 T01610133 10211 20156 55000 TSNO
KLGA - Nyc/La Guardia, New York, USA
Distance from station: ESE 12mi, 19km
Updated: 05/28/2017 1:51am
Mostly cloudy
Mostly cloudy
 Wind from ESE
Wind: ESE 6 mph , 9 km/h
Temperature: 63°F , 17°C
Dew Point: 55°F , 13°C
Humidity: 77%
Barometer: 29.90 inHg , 1012.5 hPa
Clouds: Mostly cloudy
Visibility: 10 miles , 16 km
Cloud details: Mostly cloudy 7500 ft
2017/05/28 05:51 KLGA 280551Z 12005KT 10SM BKN075 17/13 A2990 RMK AO2 SLP126 T01670133 10200 20167 55006
 
KEWR - Newark, New Jersey, USA
Distance from station: SSW 12mi, 20km
Updated: 05/28/2017 1:51am
Partly cloudy
Partly cloudy
 Wind from E
Wind: E 3 mph , 6 km/h
Temperature: 61°F , 16°C
Dew Point: 57°F , 14°C
Humidity: 88%
Barometer: 29.90 inHg , 1012.5 hPa
Clouds: Partly cloudy
Visibility: 10 miles , 16 km
Cloud details: Partly cloudy 7500 ft
2017/05/28 05:51 KEWR 280551Z 09003KT 10SM SCT075 16/14 A2990 RMK AO2 SLP126 T01610139 10222 20161 58004
KMMU - Morristown Muni, New Jersey, USA
Distance from station: WSW 18mi, 29km
Updated: 05/28/2017 2:15am
Partly cloudy
Partly cloudy
 Wind from calm
Wind: Calm
Temperature: 55°F , 13°C
Dew Point: 55°F , 13°C
Humidity: 100%
Barometer: 29.92 inHg , 1013.2 hPa
Clouds: Partly cloudy
Visibility: 10 miles , 16 km
Cloud details: Partly cloudy 7000 ft
2017/05/28 06:15 KMMU 280615Z AUTO 00000KT 10SM SCT070 13/13 A2992 RMK AO2
 
KJFK - Nyc/Jfk Arpt, New York, USA
Distance from station: SE 23mi, 36km
Updated: 05/28/2017 1:51am
Mostly cloudy
Mostly cloudy
 Wind from SE
Wind: SE 3 mph , 6 km/h
Temperature: 59°F , 15°C
Dew Point: 57°F , 14°C
Humidity: 94%
Barometer: 29.92 inHg , 1013.2 hPa
Clouds: Mostly cloudy
Visibility: 10 miles , 16 km
Cloud details: Mostly cloudy 7500 ft
2017/05/28 05:51 KJFK 280551Z 13003KT 10SM BKN075 15/14 A2992 RMK AO2 SLP132 T01500144 10178 20150 55004
KHPN - White Plains, New York, USA
Distance from station: NE 25mi, 40km
Updated: 05/28/2017 1:56am
Mostly cloudy
Mostly cloudy
 Wind from SE
Wind: SE 3 mph , 6 km/h
Temperature: 57°F , 14°C
Dew Point: 55°F , 13°C
Humidity: 94%
Barometer: 29.91 inHg , 1012.9 hPa
Clouds: Mostly cloudy
Visibility: 10 miles , 16 km
Cloud details: Mostly cloudy 7000 ft
2017/05/28 05:56 KHPN 280556Z 13003KT 10SM BKN070 14/13 A2991 RMK AO2 SLP124 T01440128 10178 20144 57007
 
KSMQ - Somerville, New Jersey, USA
Distance from station: WSW 34mi, 55km
Updated: 05/28/2017 2:14am
Mist, Clear
Mist, Clear
 Wind from calm
Wind: Calm
Temperature: 55°F , 13°C
Dew Point: 54°F , 12°C
Humidity: 94%
Barometer: 29.90 inHg , 1012.5 hPa
Summary: Mist
Clouds: Clear
Visibility: 3 miles , 5 km
2017/05/28 06:14 KSMQ 280614Z AUTO 00000KT 3SM BR CLR 13/12 A2990 RMK AO2 T01330122
K12N - Andover, New Jersey, USA
Distance from station: WNW 36mi, 57km
Updated: 05/28/2017 1:54am

 Wind from calm
Wind: Calm
Temperature: 59°F , 15°C
Dew Point: 57°F , 14°C
Humidity: 94%
Barometer: 29.91 inHg , 1012.9 hPa
2017/05/28 05:54 K12N 280554Z AUTO 00000KT 15/14 A2991 RMK AO1 SLP125 T01500144 10189 20144 56001
 
KFRG - Farmingdale, New York, USA
Distance from station: ESE 36mi, 58km
Updated: 05/28/2017 1:53am
Overcast
Overcast
 Wind from SSE
Wind: SSE 5 mph , 7 km/h
Temperature: 59°F , 15°C
Dew Point: 57°F , 14°C
Humidity: 94%
Barometer: 29.92 inHg , 1013.2 hPa
Clouds: Overcast
Visibility: 10 miles , 16 km
Cloud details: Overcast 7500 ft
2017/05/28 05:53 KFRG 280553Z AUTO 16004KT 10SM OVC075 15/14 A2992 RMK AO2 SLP131 T01500139 10161 20150 55003
KFWN - Sussex, New Jersey, USA
Distance from station: NW 37mi, 60km
Updated: 05/28/2017 1:53am
Overcast
Overcast
 Wind from calm
Wind: Calm
Temperature: 61°F , 16°C
Dew Point: 59°F , 15°C
Humidity: 94%
Barometer: 29.92 inHg , 1013.2 hPa
Clouds: Overcast
Visibility: 10 miles , 16 km
Cloud details: Overcast 7000 ft
2017/05/28 05:53 KFWN 280553Z AUTO 00000KT 10SM OVC070 16/15 A2992 RMK AO2 SLP131 T01560150 10194 20156 56003
 
KSWF - Newburgh/Stewart, New York, USA
Distance from station: 0 45mi, 72km
Updated: 05/28/2017 1:45am
Overcast
Overcast
 Wind from varies
Wind: varies 6 mph , 9 km/h
Temperature: 63°F , 17°C
Dew Point: 59°F , 15°C
Humidity: 88%
Barometer: 29.92 inHg , 1013.2 hPa
Clouds: Overcast
Visibility: 10 miles , 16 km
Cloud details: Overcast 7000 ft
2017/05/28 05:45 KSWF 280545Z VRB05KT 10SM OVC070 17/15 A2992
KMGJ - Montgomery, New York, USA
Distance from station: NNW 47mi, 75km
Updated: 05/28/2017 1:54am
Overcast
Overcast
 Wind from calm
Wind: Calm
Temperature: 61°F , 16°C
Dew Point: 57°F , 14°C
Humidity: 88%
Barometer: 29.90 inHg , 1012.5 hPa
Clouds: Overcast
Visibility: 10 miles , 16 km
Cloud details: Overcast 7500 ft
2017/05/28 05:54 KMGJ 280554Z AUTO 00000KT 10SM OVC075 16/14 A2990 RMK AO2 SLP124 T01560144 10194 20156 56005 TSNO
 
KBLM - Belmar/Farmdale, New Jersey, USA
Distance from station: S 47mi, 76km
Updated: 05/28/2017 1:56am
Mostly cloudy
Mostly cloudy
 Wind from S
Wind: S 3 mph , 6 km/h
Temperature: 61°F , 16°C
Dew Point: 57°F , 14°C
Humidity: 88%
Barometer: 29.92 inHg , 1013.2 hPa
Clouds: Mostly cloudy
Visibility: 9 miles , 14 km
Cloud details: Mostly cloudy 7000 ft
2017/05/28 05:56 KBLM 280556Z AUTO 18003KT 9SM BKN070 16/14 A2992 RMK AO2 SLP135 T01560144 10189 20144 55001
KDXR - Danbury, Connecticut, USA
Distance from station: NE 47mi, 76km
Updated: 05/28/2017 1:53am
Overcast
Overcast
 Wind from SE
Wind: SE 5 mph , 7 km/h
Temperature: 57°F , 14°C
Dew Point: 55°F , 13°C
Humidity: 94%
Barometer: 29.92 inHg , 1013.2 hPa
Clouds: Overcast
Visibility: 10 miles , 16 km
Cloud details: Few Clouds 6000 ft
Overcast 7500 ft
2017/05/28 05:53 KDXR 280553Z AUTO 14004KT 10SM FEW060 OVC075 14/13 A2992 RMK AO2 SLP130 60000 T01390133 10161 20139 58006
 
KISP - Islip, New York, USA
Distance from station: E 52mi, 83km
Updated: 05/28/2017 1:56am
Overcast
Overcast
 Wind from S
Wind: S 7 mph , 11 km/h
Temperature: 59°F , 15°C
Dew Point: 55°F , 13°C
Humidity: 88%
Barometer: 29.92 inHg , 1013.2 hPa
Clouds: Overcast
Visibility: 10 miles , 16 km
Cloud details: Few Clouds 6000 ft
Overcast 7500 ft
2017/05/28 05:56 KISP 280556Z AUTO 17006KT 10SM FEW060 OVC075 15/13 A2992 RMK AO2 SLP132 T01500133 10161 20150 55004 $
KBDR - Bridgeport, Connecticut, USA
Distance from station: ENE 54mi, 87km
Updated: 05/28/2017 1:52am
Overcast
Overcast
 Wind from ESE
Wind: ESE 5 mph , 7 km/h
Temperature: 61°F , 16°C
Dew Point: 55°F , 13°C
Humidity: 83%
Barometer: 29.92 inHg , 1013.2 hPa
Clouds: Overcast
Visibility: 10 miles , 16 km
Cloud details: Overcast 7000 ft
2017/05/28 05:52 KBDR 280552Z AUTO 11004KT 10SM OVC070 16/13 A2992 RMK AO2 SLP130 60000 T01560128 10172 20156 58005 $
 
KTTN - Trenton, New Jersey, USA
Distance from station: SW 55mi, 88km
Updated: 05/28/2017 1:53am
Overcast
Overcast
 Wind from NNW
Wind: NNW 3 mph , 6 km/h
Temperature: 59°F , 15°C
Dew Point: 57°F , 14°C
Humidity: 94%
Barometer: 29.90 inHg , 1012.5 hPa
Clouds: Overcast
Visibility: 10 miles , 16 km
Cloud details: Overcast 5500 ft
2017/05/28 05:53 KTTN 280553Z AUTO 33003KT 10SM OVC055 15/14 A2990 RMK AO2 SLP118 T01500139 10222 20144 51001
KPOU - Poughkeepsie, New York, USA
Distance from station: N 55mi, 89km
Updated: 05/28/2017 1:53am
Overcast
Overcast
 Wind from calm
Wind: Calm
Temperature: 61°F , 16°C
Dew Point: 57°F , 14°C
Humidity: 88%
Barometer: 29.89 inHg , 1012.2 hPa
Clouds: Overcast
Visibility: 10 miles , 16 km
Cloud details: Overcast 8000 ft
2017/05/28 05:53 KPOU 280553Z AUTO 00000KT 10SM OVC080 16/14 A2989 RMK AO2 SLP117 T01610139 10200 20161 57008
 
KNEL - Lakehurst Nas, New Jersey, USA
Distance from station: SSW 59mi, 95km
Updated: 05/28/2017 2:00am
Overcast
Overcast
 Wind from calm
Wind: Calm
Temperature: 63°F , 17°C
Dew Point: 59°F , 15°C
Humidity: 88%
Barometer: 29.90 inHg , 1012.5 hPa
Clouds: Overcast
Visibility: 10 miles , 16 km
Cloud details: Overcast 7000 ft
2017/05/28 06:00 KNEL 280600Z AUTO 00000KT 10SM OVC070 17/15 A2990 RMK AO2 SLP124 T01670150 10194 20150 56003 $
KWRI - Wrightst/Mcguire, New Jersey, USA
Distance from station: SSW 63mi, 102km
Updated: 05/28/2017 1:58am
Overcast
Overcast
 Wind from calm
Wind: Calm
Temperature: 63°F , 17°C
Dew Point: 59°F , 15°C
Humidity: 88%
Barometer: 29.89 inHg , 1012.2 hPa
Clouds: Overcast
Visibility: 9 miles , 14 km
Cloud details: Overcast 7000 ft
2017/05/28 05:58 KWRI 280558Z 00000KT 9SM OVC070 17/15 A2989 RMK AO2A SLP121 T01670151 10195 20165 50002
 
KHWV - Shirley, New York, USA
Distance from station: E 64mi, 103km
Updated: 05/28/2017 1:56am
Overcast
Overcast
 Wind from SSE
Wind: SSE 7 mph , 11 km/h
Temperature: 59°F , 15°C
Dew Point: 55°F , 13°C
Humidity: 88%
Barometer: 29.93 inHg , 1013.5 hPa
Clouds: Overcast
Visibility: 10 miles , 16 km
Cloud details: Overcast 7500 ft
2017/05/28 05:56 KHWV 280556Z AUTO 15006KT 10SM OVC075 15/13 A2993 RMK AO2 SLP134 T01500133 10156 20150 58004
KMJX - Toms River, New Jersey, USA
Distance from station: S 64mi, 104km
Updated: 05/28/2017 1:56am
Overcast
Overcast
 Wind from calm
Wind: Calm
Temperature: 61°F , 16°C
Dew Point: 59°F , 15°C
Humidity: 94%
Barometer: 29.92 inHg , 1013.2 hPa
Clouds: Overcast
Visibility: 10 miles , 16 km
Cloud details: Overcast 7000 ft
2017/05/28 05:56 KMJX 280556Z AUTO 00000KT 10SM OVC070 16/15 A2992 RMK AO2 SLP136 T01610150 10194 20139 51001
 
KDYL - Doylestown, Pennsylvania, USA
Distance from station: SW 65mi, 104km
Updated: 05/28/2017 1:54am
Clear
Clear
 Wind from SSE
Wind: SSE 3 mph , 6 km/h
Temperature: 55°F , 13°C
Dew Point: 55°F , 13°C
Humidity: 100%
Barometer: 29.90 inHg , 1012.5 hPa
Clouds: Clear
Visibility: 10 miles , 16 km
2017/05/28 05:54 KDYL 280554Z AUTO 16003KT 10SM CLR 13/13 A2990 RMK AO2 SLP123 T01280128 10211 20128 51001
KOXC - Oxford/Waterbury, Connecticut, USA
Distance from station: NE 65mi, 105km
Updated: 05/28/2017 2:15am

 Wind from calm
Wind: Calm
Temperature: 55°F , 13°C
Dew Point: 50°F , 10°C
Humidity: 82%
Barometer: 29.93 inHg , 1013.5 hPa
Visibility: 10 miles , 16 km
2017/05/28 06:15 KOXC 280615Z AUTO 00000KT 10SM 13/10 A2993 RMK AO1
 
KMSV - Monticello, New York, USA
Distance from station: NNW 69mi, 111km
Updated: 05/28/2017 2:15am
Overcast
Overcast
 Wind from calm
Wind: Calm
Temperature: 55°F , 13°C
Dew Point: 54°F , 12°C
Humidity: 94%
Barometer: 29.95 inHg , 1014.2 hPa
Clouds: Overcast
Visibility: 10 miles , 16 km
Cloud details: Overcast 6500 ft
2017/05/28 06:15 KMSV 280615Z AUTO 00000KT 10SM OVC065 13/12 A2995 RMK AO1
KHVN - New Haven/Tweed, Connecticut, USA
Distance from station: ENE 70mi, 112km
Updated: 05/28/2017 1:53am
Overcast
Overcast
 Wind from calm
Wind: Calm
Temperature: 57°F , 14°C
Dew Point: 54°F , 12°C
Humidity: 88%
Barometer: 29.92 inHg , 1013.2 hPa
Clouds: Overcast
Visibility: 10 miles , 16 km
Cloud details: Overcast 8000 ft
2017/05/28 05:53 KHVN 280553Z AUTO 00000KT 10SM OVC080 14/12 A2992 RMK AO2 SLP131 T01390122 10156 20122 58007
 
KMPO - Mt. Pocono, Pennsylvania, USA
Distance from station: WNW 70mi, 113km
Updated: 05/28/2017 1:53am
Overcast
Overcast
 Wind from calm
Wind: Calm
Temperature: 55°F , 13°C
Dew Point: 55°F , 13°C
Humidity: 100%
Barometer: 29.94 inHg , 1013.9 hPa
Clouds: Overcast
Visibility: 10 miles , 16 km
Cloud details: Overcast 5500 ft
2017/05/28 05:53 KMPO 280553Z AUTO 00000KT 10SM OVC055 13/13 A2994 RMK AO2 SLP136 T01330128 10167 20128 55002
KPNE - Philadelphia/Ne, Pennsylvania, USA
Distance from station: SW 72mi, 116km
Updated: 05/28/2017 1:54am
Overcast
Overcast
 Wind from calm
Wind: Calm
Temperature: 66°F , 19°C
Dew Point: 61°F , 16°C
Humidity: 83%
Barometer: 29.91 inHg , 1012.9 hPa
Clouds: Overcast
Visibility: 10 miles , 16 km
Cloud details: Overcast 7000 ft
2017/05/28 05:54 KPNE 280554Z AUTO 00000KT 10SM OVC070 19/16 A2991 RMK AO2 SLP128 T01940156 10217 20189 58002
 
KABE - Allentown, Pennsylvania, USA
Distance from station: W 73mi, 117km
Updated: 05/28/2017 1:51am
Clear
Clear
 Wind from calm
Wind: Calm
Temperature: 55°F , 13°C
Dew Point: 54°F , 12°C
Humidity: 94%
Barometer: 29.90 inHg , 1012.5 hPa
Clouds: Clear
Visibility: 10 miles , 16 km
2017/05/28 05:51 KABE 280551Z AUTO 00000KT 10SM CLR 13/12 A2990 RMK AO2 SLP126 T01330117 10211 20128 58000
KUKT - Quakertown Arp, Pennsylvania, USA
Distance from station: WSW 74mi, 119km
Updated: 05/28/2017 2:15am
Clear
Clear
 Wind from calm
Wind: Calm
Temperature: 54°F , 12°C
Dew Point: 54°F , 12°C
Humidity: 100%
Barometer: 29.92 inHg , 1013.2 hPa
Clouds: Clear
Visibility: 10 miles , 16 km
2017/05/28 06:15 KUKT 280615Z AUTO 00000KT 10SM CLR 12/12 A2992 RMK AO1
 
KVAY - Mount Holly, New Jersey, USA
Distance from station: SSW 75mi, 120km
Updated: 05/28/2017 1:54am
Overcast
Overcast
 Wind from calm
Wind: Calm
Temperature: 63°F , 17°C
Dew Point: 59°F , 15°C
Humidity: 88%
Barometer: 29.90 inHg , 1012.5 hPa
Clouds: Overcast
Visibility: 10 miles , 16 km
Cloud details: Overcast 6500 ft
2017/05/28 05:54 KVAY 280554Z AUTO 00000KT 10SM OVC065 17/15 A2990 RMK AO2 SLP124 T01720150 10206 20172 58001
KXLL - Allentown Queen, Pennsylvania, USA
Distance from station: WSW 76mi, 122km
Updated: 05/28/2017 2:15am
Clear
Clear
 Wind from calm
Wind: Calm
Temperature: 55°F , 13°C
Dew Point: 54°F , 12°C
Humidity: 94%
Barometer: 29.91 inHg , 1012.9 hPa
Clouds: Clear
Visibility: 10 miles , 16 km
2017/05/28 06:15 KXLL 280615Z AUTO 00000KT 10SM CLR 13/12 A2991 RMK AO2
 
KFOK - Westhampton Beac, New York, USA
Distance from station: E 77mi, 124km
Updated: 05/28/2017 1:53am
Overcast
Overcast
 Wind from SSW
Wind: SSW 3 mph , 6 km/h
Temperature: 57°F , 14°C
Dew Point: 52°F , 11°C
Humidity: 82%
Barometer: 29.94 inHg , 1013.9 hPa
Clouds: Overcast
Visibility: 10 miles , 16 km
Cloud details: Mostly cloudy 5000 ft
Overcast 8000 ft
2017/05/28 05:53 KFOK 280553Z AUTO 20003KT 10SM BKN050 OVC080 14/11 A2994 RMK AO2 SLP138 60000 T01390111 10144 20133 58005 TSNO
KLOM - Philly Wings F, Pennsylvania, USA
Distance from station: SW 79mi, 128km
Updated: 05/28/2017 2:15am
Partly cloudy
Partly cloudy
 Wind from calm
Wind: Calm
Temperature: 55°F , 13°C
Dew Point: 55°F , 13°C
Humidity: 100%
Barometer: 29.91 inHg , 1012.9 hPa
Clouds: Partly cloudy
Visibility: 7 miles , 11 km
Cloud details: Partly cloudy 6000 ft
2017/05/28 06:15 KLOM 280615Z AUTO 00000KT 7SM SCT060 13/13 A2991 RMK AO1
 
KMMK - Meriden, Connecticut, USA
Distance from station: NE 80mi, 128km
Updated: 05/28/2017 1:53am
Overcast
Overcast
 Wind from calm
Wind: Calm
Temperature: 55°F , 13°C
Dew Point: 54°F , 12°C
Humidity: 94%
Barometer: 29.92 inHg , 1013.2 hPa
Clouds: Overcast
Visibility: 10 miles , 16 km
Cloud details: Overcast 8000 ft
2017/05/28 05:53 KMMK 280553Z AUTO 00000KT 10SM OVC080 13/12 A2992 RMK AO2 SLP131 T01330122 10161 20122 58006 TSNO
KPTW - Pottstown, Pennsylvania, USA
Distance from station: WSW 88mi, 141km
Updated: 05/28/2017 1:54am
Mist, Clear
Mist, Clear
 Wind from calm
Wind: Calm
Temperature: 55°F , 13°C
Dew Point: 54°F , 12°C
Humidity: 94%
Barometer: 29.92 inHg , 1013.2 hPa
Summary: Mist
Clouds: Clear
Visibility: 6 miles , 10 km
2017/05/28 05:54 KPTW 280554Z AUTO 00000KT 6SM BR CLR 13/12 A2992 RMK AO2 SLP128 T01280122 10206 20128 58003
 
KSNC - Chester, Connecticut, USA
Distance from station: ENE 90mi, 146km
Updated: 05/28/2017 2:15am
Overcast
Overcast
 Wind from calm
Wind: Calm
Temperature: 55°F , 13°C
Dew Point: 54°F , 12°C
Humidity: 94%
Barometer: 29.92 inHg , 1013.2 hPa
Clouds: Overcast
Visibility: 10 miles , 16 km
Cloud details: Overcast 8000 ft
2017/05/28 06:15 KSNC 280615Z AUTO 00000KT 10SM OVC080 13/12 A2992 RMK AO2
KPHL - Philadelphia, Pennsylvania, USA
Distance from station: SW 91mi, 146km
Updated: 05/28/2017 1:54am
Mostly cloudy
Mostly cloudy
 Wind from calm
Wind: Calm
Temperature: 64°F , 18°C
Dew Point: 61°F , 16°C
Humidity: 88%
Barometer: 29.91 inHg , 1012.9 hPa
Clouds: Mostly cloudy
Visibility: 10 miles , 16 km
Cloud details: Mostly cloudy 6500 ft
2017/05/28 05:54 KPHL 280554Z 00000KT 10SM BKN065 18/16 A2991 RMK AO2 SLP126 T01780156 10200 20178 58002 $
 
KAVP - Avoca/Wilkes B., Pennsylvania, USA
Distance from station: WNW 91mi, 147km
Updated: 05/28/2017 1:54am
Overcast
Overcast
 Wind from E
Wind: E 5 mph , 7 km/h
Temperature: 61°F , 16°C
Dew Point: 55°F , 13°C
Humidity: 83%
Barometer: 29.91 inHg , 1012.9 hPa
Clouds: Overcast
Visibility: 10 miles , 16 km
Cloud details: Few Clouds 4900 ft
Overcast 6500 ft
2017/05/28 05:54 KAVP 280554Z 08004KT 10SM FEW049 OVC065 16/13 A2991 RMK AO2 SLP125 T01610133 10200 20161 58001
KHFD - Hartford/Brainar, Connecticut, USA
Distance from station: NE 96mi, 155km
Updated: 05/28/2017 1:53am
Overcast
Overcast
 Wind from S
Wind: S 3 mph , 6 km/h
Temperature: 57°F , 14°C
Dew Point: 54°F , 12°C
Humidity: 88%
Barometer: 29.91 inHg , 1012.9 hPa
Clouds: Overcast
Visibility: 10 miles , 16 km
Cloud details: Overcast 8000 ft
2017/05/28 05:53 KHFD 280553Z AUTO 19003KT 10SM OVC080 14/12 A2991 RMK AO2 SLP129 T01440117 10178 20144 58006
 
KHTO - East Hampton, New York, USA
Distance from station: E 96mi, 155km
Updated: 05/28/2017 2:15am
Overcast
Overcast
 Wind from calm
Wind: Calm
Temperature: 54°F , 12°C
Dew Point: 52°F , 11°C
Humidity: 94%
Barometer: 29.92 inHg , 1013.2 hPa
Clouds: Overcast
Visibility: 10 miles , 16 km
Cloud details: Overcast 8000 ft
2017/05/28 06:15 KHTO 280615Z AUTO 00000KT 10SM OVC080 12/11 A2992 RMK AO2 T01180106
KACY - Atlantic City, New Jersey, USA
Distance from station: SSW 99mi, 160km
Updated: 05/28/2017 1:54am
Mostly cloudy
Mostly cloudy
 Wind from calm
Wind: Calm
Temperature: 63°F , 17°C
Dew Point: 59°F , 15°C
Humidity: 88%
Barometer: 29.90 inHg , 1012.5 hPa
Clouds: Mostly cloudy
Visibility: 10 miles , 16 km
Cloud details: Mostly cloudy 5500 ft
Mostly cloudy 7500 ft
2017/05/28 05:54 KACY 280554Z 00000KT 10SM BKN055 BKN075 17/15 A2990 RMK AO2 SLP125 T01670150 10194 20167 58003